createdAt,value
2018-07-23T00:00:48.347Z,24.63
2018-07-23T00:03:18.208Z,24.59
2018-07-23T00:05:48.123Z,24.58
2018-07-23T00:08:17.988Z,24.65
2018-07-23T00:10:47.816Z,24.10
2018-07-23T00:13:17.652Z,24.12
2018-07-23T00:15:47.536Z,24.16
2018-07-23T00:18:17.427Z,23.92
2018-07-23T00:20:47.201Z,24.02
2018-07-23T00:23:17.023Z,23.69
2018-07-23T00:25:46.893Z,23.41
2018-07-23T00:28:16.754Z,23.47
2018-07-23T00:30:46.668Z,23.26
2018-07-23T00:33:16.499Z,23.60
2018-07-23T00:35:46.486Z,23.77
2018-07-23T00:38:16.396Z,23.36
2018-07-23T00:40:46.199Z,22.94
2018-07-23T00:43:16.127Z,22.92
2018-07-23T00:45:46.104Z,22.46
2018-07-23T00:48:15.895Z,22.74
2018-07-23T00:50:45.736Z,23.07
2018-07-23T00:53:15.589Z,22.35
2018-07-23T00:55:45.471Z,22.58
2018-07-23T00:58:15.385Z,22.98
2018-07-23T01:00:45.209Z,23.25
2018-07-23T01:03:15.057Z,23.40
2018-07-23T01:05:44.989Z,23.49
2018-07-23T01:08:14.838Z,23.79
2018-07-23T01:10:44.784Z,23.98
2018-07-23T01:13:14.638Z,24.12
2018-07-23T01:15:44.569Z,24.18
2018-07-23T01:18:14.551Z,24.23
2018-07-23T01:20:44.439Z,24.27
2018-07-23T01:23:14.324Z,24.25
2018-07-23T01:25:44.353Z,24.17
2018-07-23T01:28:14.420Z,24.13
2018-07-23T01:30:44.424Z,24.08
2018-07-23T01:33:14.327Z,24.09
2018-07-23T01:35:44.297Z,24.07
2018-07-23T01:38:14.316Z,24.05
2018-07-23T01:40:44.257Z,24.06
2018-07-23T01:43:14.263Z,24.01
2018-07-23T01:45:44.243Z,23.91
2018-07-23T01:48:14.332Z,23.72
2018-07-23T01:50:44.289Z,23.73
2018-07-23T01:53:14.113Z,23.85
2018-07-23T01:55:44.103Z,23.86
2018-07-23T01:58:14.067Z,23.91
2018-07-23T02:00:43.977Z,23.96
2018-07-23T02:03:14.040Z,24.03
2018-07-23T02:05:44.145Z,24.06
2018-07-23T02:08:14.091Z,24.07
2018-07-23T02:10:43.928Z,24.08
2018-07-23T02:13:13.854Z,24.09
2018-07-23T02:15:43.814Z,24.09
2018-07-23T02:18:13.715Z,23.81
2018-07-23T02:20:43.696Z,23.73
2018-07-23T02:23:13.515Z,23.77
2018-07-23T02:25:43.492Z,23.82
2018-07-23T02:28:13.367Z,23.95
2018-07-23T02:30:43.513Z,24.03
2018-07-23T02:33:13.539Z,24.04
2018-07-23T02:35:43.572Z,23.86
2018-07-23T02:38:13.506Z,23.79
2018-07-23T02:40:43.306Z,23.70
2018-07-23T02:43:13.128Z,23.60
2018-07-23T02:45:42.936Z,23.59
2018-07-23T02:48:12.957Z,23.53
2018-07-23T02:50:42.875Z,23.58
2018-07-23T02:53:12.735Z,23.59
2018-07-23T02:55:42.715Z,23.70
2018-07-23T02:58:12.572Z,23.77
2018-07-23T03:00:42.376Z,23.80
2018-07-23T03:03:12.216Z,23.86
2018-07-23T03:05:42.098Z,24.06
2018-07-23T03:08:11.907Z,24.27
2018-07-23T03:10:41.847Z,24.41
2018-07-23T03:13:11.714Z,24.58
2018-07-23T03:15:41.568Z,24.60
2018-07-23T03:18:11.415Z,24.62
2018-07-23T03:20:41.323Z,24.62
2018-07-23T03:23:11.151Z,24.65
2018-07-23T03:25:40.979Z,24.64
2018-07-23T03:28:10.747Z,24.62
2018-07-23T03:30:40.716Z,24.68
2018-07-23T03:33:10.573Z,24.71
2018-07-23T03:35:40.480Z,24.73
2018-07-23T03:38:10.405Z,24.73
2018-07-23T03:40:40.742Z,24.69
2018-07-23T03:43:10.659Z,24.64
2018-07-23T03:45:40.601Z,24.58
2018-07-23T03:48:10.458Z,24.51
2018-07-23T03:50:40.433Z,24.51
2018-07-23T03:53:10.367Z,24.51
2018-07-23T03:55:40.232Z,24.58
2018-07-23T03:58:10.083Z,24.59
2018-07-23T04:00:39.965Z,24.65
2018-07-23T04:03:09.848Z,24.65
2018-07-23T04:05:39.744Z,24.74
2018-07-23T04:08:09.624Z,24.66
2018-07-23T04:10:39.585Z,24.65
2018-07-23T04:13:13.189Z,24.52
2018-07-23T04:15:43.129Z,24.19
2018-07-23T04:18:13.912Z,23.94
2018-07-23T04:20:43.855Z,23.58
2018-07-23T04:23:13.735Z,23.45
2018-07-23T04:25:43.695Z,23.32
2018-07-23T04:28:13.596Z,23.18
2018-07-23T04:30:43.515Z,23.09
2018-07-23T04:33:13.356Z,22.76
2018-07-23T04:35:43.181Z,22.80
2018-07-23T04:38:13.051Z,22.74
2018-07-23T04:40:42.899Z,22.65
2018-07-23T04:43:12.747Z,22.72
2018-07-23T04:45:42.626Z,22.37
2018-07-23T04:48:12.488Z,22.62
2018-07-23T04:50:42.407Z,22.90
2018-07-23T04:53:12.217Z,23.21
2018-07-23T04:55:42.184Z,22.51
2018-07-23T04:58:12.070Z,22.98
2018-07-23T05:00:41.908Z,23.32
2018-07-23T05:03:11.741Z,22.75
2018-07-23T05:05:41.556Z,23.22
2018-07-23T05:08:11.745Z,23.34
2018-07-23T05:10:41.610Z,23.35
2018-07-23T05:13:11.559Z,23.59
2018-07-23T05:15:41.626Z,23.34
2018-07-23T05:18:11.440Z,23.60
2018-07-23T05:20:41.344Z,23.07
2018-07-23T05:23:11.214Z,23.38
2018-07-23T05:25:41.090Z,23.78
2018-07-23T05:28:11.044Z,23.95
2018-07-23T05:30:41.016Z,24.02
2018-07-23T05:33:10.790Z,24.84
2018-07-23T05:35:40.637Z,25.41
2018-07-23T05:38:10.545Z,25.81
2018-07-23T05:40:40.413Z,26.11
2018-07-23T05:43:10.382Z,25.53
2018-07-23T05:45:40.276Z,25.71
2018-07-23T05:48:10.175Z,25.48
2018-07-23T05:50:40.075Z,25.70
2018-07-23T05:53:10.149Z,26.09
2018-07-23T05:55:40.014Z,26.03
2018-07-23T05:58:09.871Z,25.57
2018-07-23T06:00:39.836Z,25.39
2018-07-23T06:03:09.760Z,25.58
2018-07-23T06:05:39.815Z,25.56
2018-07-23T06:08:10.654Z,24.79
2018-07-23T06:10:40.771Z,24.97
2018-07-23T06:13:10.750Z,24.75
2018-07-23T06:15:40.531Z,24.36
2018-07-23T06:18:10.411Z,24.65
2018-07-23T06:20:40.255Z,24.71
2018-07-23T06:23:10.237Z,24.98
2018-07-23T06:25:40.136Z,25.09
2018-07-23T06:28:10.067Z,24.85
2018-07-23T06:30:39.927Z,24.73
2018-07-23T06:33:09.860Z,24.37
2018-07-23T06:35:39.732Z,24.48
2018-07-23T06:38:09.585Z,24.47
2018-07-23T06:40:39.421Z,24.58
2018-07-23T06:43:09.220Z,24.39
2018-07-23T06:45:39.059Z,24.35
2018-07-23T06:48:08.957Z,24.41
2018-07-23T06:50:38.779Z,24.43
2018-07-23T06:53:08.591Z,24.17
2018-07-23T06:55:38.494Z,24.39
2018-07-23T06:58:08.328Z,24.71
2018-07-23T07:00:38.165Z,24.76
2018-07-23T07:03:08.144Z,25.15
2018-07-23T07:05:38.004Z,25.18
2018-07-23T07:08:07.870Z,25.48
2018-07-23T07:10:37.762Z,25.79
2018-07-23T07:13:07.609Z,25.73
2018-07-23T07:15:37.516Z,25.90
2018-07-23T07:18:07.397Z,25.59
2018-07-23T07:20:37.328Z,25.19
2018-07-23T07:23:07.190Z,24.92
2018-07-23T07:25:37.150Z,25.38
2018-07-23T07:28:06.940Z,24.73
2018-07-23T07:30:36.735Z,24.76
2018-07-23T07:33:07.012Z,25.02
2018-07-23T07:35:36.832Z,25.37
2018-07-23T07:38:06.811Z,25.70
2018-07-23T07:40:36.776Z,25.57
2018-07-23T07:43:06.614Z,25.52
2018-07-23T07:45:36.451Z,25.59
2018-07-23T07:48:06.276Z,25.82
2018-07-23T07:50:36.179Z,25.95
2018-07-23T07:53:06.005Z,25.27
2018-07-23T07:55:36.518Z,25.05
2018-07-23T07:58:06.259Z,25.10
2018-07-23T08:00:36.147Z,25.51
2018-07-23T08:03:06.101Z,25.26
2018-07-23T08:05:36.052Z,25.10
2018-07-23T08:08:05.951Z,25.39
2018-07-23T08:10:35.773Z,25.63
2018-07-23T08:13:05.684Z,25.48
2018-07-23T08:15:35.632Z,25.67
2018-07-23T08:18:05.436Z,25.62
2018-07-23T08:20:35.379Z,25.79
2018-07-23T08:23:05.298Z,25.91
2018-07-23T08:25:35.239Z,26.18
2018-07-23T08:28:05.484Z,26.28
2018-07-23T08:30:35.482Z,26.16
2018-07-23T08:33:05.333Z,26.23
2018-07-23T08:35:35.127Z,26.13
2018-07-23T08:38:04.976Z,26.34
2018-07-23T08:40:34.754Z,26.49
2018-07-23T08:43:04.652Z,26.66
2018-07-23T08:45:34.551Z,26.09
2018-07-23T08:48:04.411Z,25.98
2018-07-23T08:50:34.311Z,26.38
2018-07-23T08:53:04.245Z,26.36
2018-07-23T08:55:34.041Z,26.50
2018-07-23T08:58:04.027Z,26.14
2018-07-23T09:00:34.004Z,26.15
2018-07-23T09:03:03.848Z,26.24
2018-07-23T09:05:33.737Z,25.97
2018-07-23T09:08:03.803Z,26.00
2018-07-23T09:10:33.676Z,25.96
2018-07-23T09:13:03.519Z,26.21
2018-07-23T09:15:33.631Z,26.58
2018-07-23T09:18:03.548Z,26.53
2018-07-23T09:20:33.352Z,26.48
2018-07-23T09:23:03.256Z,26.22
2018-07-23T09:25:38.057Z,26.34
2018-07-23T09:28:08.063Z,26.59
2018-07-23T09:30:43.279Z,26.64
2018-07-23T09:33:13.168Z,26.62
2018-07-23T09:35:43.091Z,26.74
2018-07-23T09:38:13.194Z,26.37
2018-07-23T09:40:43.115Z,26.22
2018-07-23T09:43:13.076Z,26.36
2018-07-23T09:45:43.501Z,26.33
2018-07-23T09:48:13.464Z,25.91
2018-07-23T09:50:43.471Z,25.96
2018-07-23T09:53:13.454Z,25.87
2018-07-23T09:55:43.225Z,26.04
2018-07-23T09:58:13.092Z,25.81
2018-07-23T10:00:48.101Z,26.01
2018-07-23T10:03:18.284Z,26.10
2018-07-23T10:05:48.059Z,26.19
2018-07-23T10:08:17.948Z,25.87
2018-07-23T10:10:47.799Z,26.10
2018-07-23T10:13:17.788Z,26.29
2018-07-23T10:15:47.630Z,26.38
2018-07-23T10:18:17.615Z,26.41
2018-07-23T10:20:47.504Z,26.56
2018-07-23T10:23:17.284Z,26.62
2018-07-23T10:25:47.373Z,26.40
2018-07-23T10:28:17.258Z,26.52
2018-07-23T10:30:47.155Z,26.59
2018-07-23T10:33:16.928Z,26.51
2018-07-23T10:35:46.793Z,26.47
2018-07-23T10:38:17.216Z,26.43
2018-07-23T10:40:47.112Z,26.43
2018-07-23T10:43:17.023Z,26.39
2018-07-23T10:45:46.862Z,26.28
2018-07-23T10:48:16.722Z,26.25
2018-07-23T10:50:46.559Z,26.22
2018-07-23T10:53:16.363Z,26.18
2018-07-23T10:55:46.203Z,26.09
2018-07-23T10:58:16.119Z,26.07
2018-07-23T11:00:45.964Z,26.03
2018-07-23T11:03:15.772Z,26.02
2018-07-23T11:05:45.760Z,26.02
2018-07-23T11:08:15.632Z,25.99
2018-07-23T11:10:45.515Z,25.88
2018-07-23T11:13:15.519Z,25.73
2018-07-23T11:15:45.464Z,25.76
2018-07-23T11:18:15.434Z,25.72
2018-07-23T11:20:45.362Z,25.75
2018-07-23T11:23:15.311Z,25.66
2018-07-23T11:25:45.136Z,25.56
2018-07-23T11:28:14.957Z,25.47
2018-07-23T11:30:44.932Z,25.58
2018-07-23T11:33:14.865Z,25.56
2018-07-23T11:35:44.811Z,25.44
2018-07-23T11:38:14.624Z,25.43
2018-07-23T11:40:44.593Z,25.49
2018-07-23T11:43:14.427Z,25.36
2018-07-23T11:45:44.435Z,25.67
2018-07-23T11:48:14.263Z,25.80
2018-07-23T11:50:44.188Z,26.04
2018-07-23T11:53:14.197Z,26.23
2018-07-23T11:55:44.513Z,26.18
2018-07-23T11:58:21.780Z,26.38
2018-07-23T12:00:51.823Z,26.31
2018-07-23T12:03:21.698Z,26.24
2018-07-23T12:05:51.493Z,26.12
2018-07-23T12:08:21.479Z,26.19
2018-07-23T12:10:51.310Z,26.43
2018-07-23T12:13:21.179Z,26.61
2018-07-23T12:15:51.108Z,26.19
2018-07-23T12:18:20.939Z,26.53
2018-07-23T12:20:50.859Z,26.60
2018-07-23T12:23:20.667Z,26.79
2018-07-23T12:25:50.527Z,26.99
2018-07-23T12:28:20.433Z,27.12
2018-07-23T12:30:50.319Z,27.07
2018-07-23T12:33:20.261Z,27.01
2018-07-23T12:35:50.223Z,27.04
2018-07-23T12:38:20.116Z,27.18
2018-07-23T12:40:50.059Z,27.23
2018-07-23T12:43:20.993Z,27.15
2018-07-23T12:45:50.774Z,27.17
2018-07-23T12:48:20.672Z,27.11
2018-07-23T12:50:50.636Z,27.13
2018-07-23T12:53:20.549Z,27.18
2018-07-23T12:55:50.399Z,27.17
2018-07-23T12:58:20.322Z,27.18
2018-07-23T13:00:50.150Z,27.15
2018-07-23T13:03:20.029Z,27.12
2018-07-23T13:05:49.953Z,27.13
2018-07-23T13:08:19.791Z,27.07
2018-07-23T13:10:49.629Z,27.11
2018-07-23T13:13:19.680Z,27.09
2018-07-23T13:15:49.727Z,26.96
2018-07-23T13:18:19.579Z,26.00
2018-07-23T13:20:49.564Z,25.05
2018-07-23T13:23:19.391Z,25.73
2018-07-23T13:25:49.342Z,25.95
2018-07-23T13:28:19.143Z,26.12
2018-07-23T13:30:48.951Z,26.18
2018-07-23T13:33:18.711Z,26.07
2018-07-23T13:35:48.676Z,26.03
2018-07-23T13:38:18.590Z,26.09
2018-07-23T13:40:48.519Z,26.06
2018-07-23T13:43:18.392Z,26.05
2018-07-23T13:45:48.239Z,26.03
2018-07-23T13:48:18.112Z,25.86
2018-07-23T13:50:47.894Z,25.87
2018-07-23T13:53:17.754Z,25.84
2018-07-23T13:55:47.618Z,25.83
2018-07-23T13:58:17.338Z,25.72
2018-07-23T14:00:47.204Z,25.74
2018-07-23T14:03:17.253Z,24.73
2018-07-23T14:05:50.741Z,25.20
2018-07-23T14:08:20.645Z,25.26
2018-07-23T14:10:56.897Z,25.17
2018-07-23T14:13:26.702Z,25.29
2018-07-23T14:15:56.503Z,25.45
2018-07-23T14:18:26.356Z,25.51
2018-07-23T14:20:56.205Z,24.93
2018-07-23T14:23:26.084Z,24.33
2018-07-23T14:25:55.908Z,24.55
2018-07-23T14:28:25.848Z,24.95
2018-07-23T14:30:55.627Z,25.14
2018-07-23T14:33:25.476Z,25.34
2018-07-23T14:35:56.348Z,25.52
2018-07-23T14:38:26.209Z,25.61
2018-07-23T14:40:56.256Z,25.63
2018-07-23T14:43:26.089Z,25.57
2018-07-23T14:45:56.025Z,25.71
2018-07-23T14:48:25.968Z,25.84
2018-07-23T14:50:55.886Z,25.90
2018-07-23T14:53:25.755Z,25.73
2018-07-23T14:55:55.641Z,25.12
2018-07-23T14:58:25.495Z,25.38
2018-07-23T15:00:55.254Z,25.61
2018-07-23T15:03:25.060Z,25.46
2018-07-23T15:05:54.830Z,25.32
2018-07-23T15:08:24.933Z,25.51
2018-07-23T15:10:54.811Z,25.57
2018-07-23T15:13:24.559Z,25.62
2018-07-23T15:15:54.465Z,25.70
2018-07-23T15:18:24.164Z,25.58
2018-07-23T15:20:54.202Z,25.31
2018-07-23T15:23:23.934Z,25.46
2018-07-23T15:25:53.716Z,25.55
2018-07-23T15:28:23.464Z,25.71
2018-07-23T15:30:53.420Z,25.74
2018-07-23T15:33:23.195Z,25.82
2018-07-23T15:35:53.206Z,25.84
2018-07-23T15:38:23.093Z,25.83
2018-07-23T15:40:52.858Z,25.87
2018-07-23T15:43:22.724Z,25.85
2018-07-23T15:45:52.579Z,25.86
2018-07-23T15:48:22.365Z,25.93
2018-07-23T15:50:52.292Z,25.91
2018-07-23T15:53:22.247Z,25.90
2018-07-23T15:55:51.999Z,25.95
2018-07-23T15:58:21.809Z,25.99
2018-07-23T16:00:51.712Z,26.08
2018-07-23T16:03:22.455Z,26.12
2018-07-23T16:05:52.299Z,26.10
2018-07-23T16:08:22.341Z,25.97
2018-07-23T16:10:52.322Z,25.89
2018-07-23T16:13:22.230Z,25.84
2018-07-23T16:15:52.052Z,25.98
2018-07-23T16:18:21.840Z,25.92
2018-07-23T16:20:51.702Z,25.85
2018-07-23T16:23:21.726Z,25.72
2018-07-23T16:25:51.645Z,25.59
2018-07-23T16:28:21.589Z,25.79
2018-07-23T16:30:51.614Z,25.90
2018-07-23T16:33:21.553Z,25.91
2018-07-23T16:35:51.342Z,25.99
2018-07-23T16:38:21.484Z,26.00
2018-07-23T16:40:51.347Z,25.99
2018-07-23T16:43:21.206Z,25.95
2018-07-23T16:45:50.953Z,25.90
2018-07-23T16:48:20.807Z,25.81
2018-07-23T16:50:51.715Z,25.33
2018-07-23T16:53:21.780Z,24.62
2018-07-23T16:55:51.662Z,24.53
2018-07-23T16:58:21.495Z,24.42
2018-07-23T17:00:51.355Z,23.99
2018-07-23T17:03:21.275Z,23.60
2018-07-23T17:05:51.048Z,23.68
2018-07-23T17:08:20.884Z,23.77
2018-07-23T17:10:50.874Z,23.87
2018-07-23T17:13:21.191Z,24.07
2018-07-23T17:15:52.566Z,24.18
2018-07-23T17:18:22.444Z,24.12
2018-07-23T17:20:52.233Z,24.05
2018-07-23T17:23:22.382Z,24.25
2018-07-23T17:25:52.446Z,24.42
2018-07-23T17:28:22.434Z,24.15
2018-07-23T17:30:52.398Z,24.11
2018-07-23T17:33:22.477Z,23.83
2018-07-23T17:35:52.417Z,23.00
2018-07-23T17:38:24.032Z,22.37
2018-07-23T17:40:54.189Z,21.94
2018-07-23T17:43:24.549Z,21.95
2018-07-23T17:45:54.847Z,21.77
2018-07-23T17:48:24.917Z,21.28
2018-07-23T17:50:54.897Z,21.79
2018-07-23T17:53:24.863Z,21.58
2018-07-23T17:55:55.199Z,21.54
2018-07-23T17:58:25.232Z,21.82
2018-07-23T18:00:55.282Z,21.92
2018-07-23T18:03:25.214Z,22.04
2018-07-23T18:05:55.696Z,22.14
2018-07-23T18:08:25.752Z,22.07
2018-07-23T18:10:55.971Z,22.04
2018-07-23T18:13:25.918Z,22.25
2018-07-23T18:15:55.858Z,22.44
2018-07-23T18:18:25.854Z,22.74
2018-07-23T18:20:55.927Z,23.07
2018-07-23T18:23:26.054Z,23.36
2018-07-23T18:25:56.091Z,23.57
2018-07-23T18:28:26.184Z,23.78
2018-07-23T18:30:56.207Z,23.86
2018-07-23T18:33:26.318Z,24.01
2018-07-23T18:35:56.408Z,24.00
2018-07-23T18:38:26.591Z,24.03
2018-07-23T18:40:56.659Z,24.11
2018-07-23T18:43:26.528Z,24.12
2018-07-23T18:45:56.416Z,24.22
2018-07-23T18:49:38.240Z,24.16
2018-07-23T18:52:08.245Z,24.05
2018-07-23T18:54:38.383Z,24.14
2018-07-23T18:57:08.831Z,24.15
2018-07-23T18:59:38.799Z,24.19
2018-07-23T19:02:09.814Z,24.23
2018-07-23T19:04:39.710Z,24.28
2018-07-23T19:07:09.854Z,24.31
2018-07-23T19:09:39.788Z,24.29
2018-07-23T19:12:10.025Z,24.24
2018-07-23T19:14:39.812Z,24.31
2018-07-23T19:17:10.990Z,24.37
2018-07-23T19:19:40.929Z,24.11
2018-07-23T19:22:11.012Z,24.32
2018-07-23T19:24:41.139Z,24.42
2018-07-23T19:27:11.191Z,24.49
2018-07-23T19:29:41.130Z,24.48
2018-07-23T19:32:11.008Z,24.51
2018-07-23T19:34:41.264Z,24.54
2018-07-23T19:37:11.455Z,24.57
2018-07-23T19:39:41.510Z,24.57
2018-07-23T19:42:11.600Z,24.63
2018-07-23T19:44:41.741Z,24.59
2018-07-23T19:47:11.648Z,24.64
2018-07-23T19:49:41.470Z,24.33
2018-07-23T19:52:11.589Z,24.38
2018-07-23T19:54:41.591Z,24.22
2018-07-23T19:57:12.098Z,23.74
2018-07-23T19:59:42.029Z,23.49
2018-07-23T20:02:12.094Z,23.67
2018-07-23T20:04:41.967Z,23.91
2018-07-23T20:07:11.942Z,24.15
2018-07-23T20:09:41.894Z,24.23
2018-07-23T20:12:11.874Z,24.16
2018-07-23T20:14:41.698Z,23.92
2018-07-23T20:17:11.876Z,23.75
2018-07-23T20:19:41.775Z,23.66
2018-07-23T20:22:11.844Z,23.59
2018-07-23T20:24:41.760Z,23.77
2018-07-23T20:27:11.663Z,23.89
2018-07-23T20:29:41.578Z,24.07
2018-07-23T20:32:11.550Z,24.20
2018-07-23T20:34:41.364Z,24.33
2018-07-23T20:37:11.326Z,24.39
2018-07-23T20:39:41.203Z,24.41
2018-07-23T20:42:11.210Z,24.33
2018-07-23T20:44:41.088Z,24.36
2018-07-23T20:47:11.063Z,24.36
2018-07-23T20:49:41.066Z,24.26
2018-07-23T20:52:10.872Z,24.33
2018-07-23T20:54:40.776Z,24.32
2018-07-23T20:57:10.703Z,24.20
2018-07-23T20:59:40.664Z,24.13
2018-07-23T21:02:10.508Z,24.18
2018-07-23T21:04:40.362Z,24.14
2018-07-23T21:07:10.301Z,24.04
2018-07-23T21:09:40.239Z,24.08
2018-07-23T21:12:10.248Z,24.16
2018-07-23T21:14:40.052Z,24.25
2018-07-23T21:17:09.954Z,24.29
2018-07-23T21:19:39.917Z,24.23
2018-07-23T21:22:09.923Z,24.27
2018-07-23T21:24:39.715Z,24.03
2018-07-23T21:27:09.665Z,22.37
2018-07-23T21:29:39.531Z,21.21
2018-07-23T21:32:09.828Z,21.55
2018-07-23T21:34:39.679Z,22.44
2018-07-23T21:37:09.559Z,22.23
2018-07-23T21:39:39.526Z,22.16
2018-07-23T21:42:09.659Z,21.68
2018-07-23T21:44:39.539Z,21.89
2018-07-23T21:47:09.386Z,21.54
2018-07-23T21:49:39.274Z,21.42
2018-07-23T21:52:09.078Z,21.72
2018-07-23T21:54:38.782Z,21.60
2018-07-23T21:57:08.689Z,21.81
2018-07-23T21:59:38.539Z,22.08
2018-07-23T22:02:08.479Z,22.27
2018-07-23T22:04:38.276Z,22.53
2018-07-23T22:07:08.111Z,22.74
2018-07-23T22:09:37.992Z,22.93
2018-07-23T22:12:07.822Z,23.08
2018-07-23T22:14:37.639Z,22.56
2018-07-23T22:17:07.496Z,22.53
2018-07-23T22:19:37.302Z,21.68
2018-07-23T22:22:07.287Z,20.56
2018-07-23T22:24:37.218Z,20.75
2018-07-23T22:27:07.281Z,20.08
2018-07-23T22:29:37.098Z,19.97
2018-07-23T22:32:06.942Z,20.04
2018-07-23T22:34:37.088Z,20.12
2018-07-23T22:37:07.026Z,20.57
2018-07-23T22:39:37.139Z,20.94
2018-07-23T22:42:07.024Z,21.51
2018-07-23T22:44:36.846Z,20.58
2018-07-23T22:47:07.235Z,20.30
2018-07-23T22:49:37.091Z,20.17
2018-07-23T22:52:07.122Z,20.72
2018-07-23T22:54:37.086Z,20.40
2018-07-23T22:57:06.985Z,20.98
2018-07-23T22:59:36.907Z,20.97
2018-07-23T23:02:06.786Z,21.60
2018-07-23T23:04:36.720Z,22.06
2018-07-23T23:07:06.755Z,20.28
2018-07-23T23:09:36.780Z,20.62
2018-07-23T23:12:06.830Z,21.10
2018-07-23T23:14:36.661Z,21.23
2018-07-23T23:17:06.398Z,21.38
2018-07-23T23:19:36.190Z,21.52
2018-07-23T23:22:05.987Z,21.65
2018-07-23T23:24:36.882Z,21.66
2018-07-23T23:27:06.736Z,21.80
2018-07-23T23:29:36.634Z,21.89
2018-07-23T23:32:06.503Z,22.05
2018-07-23T23:34:36.308Z,22.16
2018-07-23T23:37:06.162Z,22.24
2018-07-23T23:39:35.973Z,22.27
2018-07-23T23:42:05.899Z,22.11
2018-07-23T23:44:35.626Z,21.77
2018-07-23T23:47:05.494Z,21.84
2018-07-23T23:49:35.274Z,20.47
2018-07-23T23:52:05.036Z,20.89
2018-07-23T23:54:34.809Z,21.18
2018-07-23T23:57:04.707Z,21.19
2018-07-23T23:59:34.541Z,21.22
